Terminal Aerodrome Forecast
Issued by NWS

Home | Current Version | Previous Version | Text Only | Print | Product List | Glossary On
Versions: 1 2 3 4 5 6 7 8 9 10 11 12 13 14
000
FTUS44 KTSA 040411 AAA
TAFRVS
TAF AMD
KRVS 040411Z 0404/0424 09005KT 3SM -DZ BR BKN006 OVC015
     FM040600 11004KT 2SM -RA BR OVC006
     FM041500 32004KT 4SM BR OVC007
     FM041800 35006KT P6SM BKN015
     FM042100 35007KT P6SM SKC=

USA.gov is the U.S. government's official web portal to all federal, state and local government web resources and services.